Latest Weather Observations for Cape Bruny AWS

IDT60901

Issued at 10:01 am EDT Sunday 1 March 2015 (issued every 10 minutes, with the page automatically refreshed every 10 minutes)

About weather observations | Map of Hobart area stations | Latest observations for Hobart area | Other Formats
Station Details ID: 094198 Name: CAPE BRUNY (CAPE BRUNY) Lat: -43.49 Lon: 147.14 Height: 59.7 m
Data from the previous 72 hours. | See also: Recent months at Cape Bruny AWS
Date/Time
EDT
Tmp

°C
App
Tmp
°C
Dew
Point
°C
Rel
Hum
%
Delta-T

°C
Wind Press
QNH
hPa
Press
MSL
hPa
Rain
since
9 am
mm
Dir
 
Spd
km/h
Gust
km/h
Spd
kts
Gust
kts
01/10:00am 13.6 4.3 9.1 74 2.3 WSW 48 67 26 36 1006.3 1006.2 0.0
01/09:57am 13.6 4.5 9.8 78 2.0 WSW 48 67 26 36 1006.4 1006.3 0.0
01/09:53am 13.7 4.0 9.0 73 2.4 WSW 50 67 27 36 1006.1 1006.0 0.0
01/09:37am 13.7 6.1 9.2 74 2.3 W 39 57 21 31 1005.8 1005.7 0.0
01/09:30am 14.4 5.6 9.4 72 2.6 WSW 46 57 25 31 1005.7 1005.6 0.0
01/09:00am 13.9 4.3 9.3 74 2.4 WSW 50 63 27 34 1005.2 1005.1 5.2
01/08:30am 13.4 3.6 8.5 72 2.5 WSW 50 61 27 33 1004.5 1004.4 5.2
01/08:09am 12.9 3.4 9.7 81 1.6 WSW 50 69 27 37 1004.1 1004.0 5.2
01/08:00am 12.3 3.9 9.7 84 1.3 WSW 44 59 24 32 1004.0 1003.9 5.0
01/07:47am 12.2 3.4 9.4 83 1.4 W 46 65 25 35 1003.7 1003.6 5.0
01/07:30am 12.8 3.1 8.9 77 2.0 WSW 50 67 27 36 1003.2 1003.1 5.0
01/07:23am 12.4 4.1 9.4 82 1.5 W 43 63 23 34 1003.1 1003.0 5.0
01/07:00am 12.1 4.4 10.0 87 1.1 W 41 56 22 30 1002.7 1002.6 5.0
01/06:31am 12.3 4.0 10.0 86 1.2 W 44 65 24 35 1002.1 1002.0 5.0
01/06:30am 12.5 4.2 10.2 86 1.2 W 44 61 24 33 1002.0 1001.9 5.0
01/06:07am 12.6 3.8 9.6 82 1.5 W 46 65 25 35 1001.1 1001.0 4.8
01/06:00am 12.8 3.8 10.2 84 1.4 W 48 63 26 34 1001.0 1000.9 4.8
01/05:37am 12.7 4.2 10.8 88 1.0 W 46 65 25 35 1000.6 1000.5 4.8
01/05:30am 12.7 3.5 10.8 88 1.0 W 50 65 27 35 1000.6 1000.5 4.8
01/05:00am 12.9 2.5 10.8 87 1.1 W 56 74 30 40 999.7 999.6 4.6
01/04:44am 14.1 5.7 9.7 75 2.3 W 44 74 24 40 999.6 999.5 4.4
01/04:30am 14.6 7.8 9.2 70 2.8 WNW 35 50 19 27 999.2 999.1 4.4
01/04:00am 14.5 4.3 8.7 68 3.0 WNW 52 70 28 38 998.8 998.7 4.4
01/03:46am 14.5 4.4 8.9 69 2.9 WNW 52 70 28 38 998.5 998.4 4.4
01/03:44am 14.4 3.9 8.8 69 2.9 WNW 54 72 29 39 998.6 998.5 4.4
01/03:30am 14.8 1.8 8.7 67 3.1 WNW 67 80 36 43 998.4 998.3 4.4
01/03:20am 14.9 3.0 8.8 67 3.1 WNW 61 80 33 43 998.0 997.9 4.4
01/03:07am 15.3 3.9 9.2 67 3.1 W 59 76 32 41 998.1 998.0 4.4
01/03:00am 15.5 6.2 9.0 65 3.4 W 48 74 26 40 998.4 998.3 4.4
01/02:59am 15.4 6.1 9.1 66 3.2 W 48 74 26 40 998.4 998.3 4.4
01/02:30am 15.3 4.8 9.0 66 3.2 W 54 61 29 33 998.5 998.4 4.4
01/02:00am 15.5 7.7 9.6 68 3.1 WNW 41 57 22 31 998.6 998.5 4.4
01/01:30am 15.6 8.9 9.7 68 3.1 WNW 35 56 19 30 998.3 998.2 4.4
01/01:07am 15.8 8.6 10.6 71 2.8 WNW 39 57 21 31 998.2 998.1 4.4
01/01:00am 15.6 9.1 10.4 71 2.8 W 35 50 19 27 998.2 998.1 4.4
01/12:30am 15.8 5.7 10.3 70 2.9 W 54 63 29 34 997.5 997.4 4.4
01/12:00am 15.8 5.5 9.7 67 3.2 W 54 85 29 46 997.2 997.1 4.4
 
Date/Time
EDT
Tmp

°C
App
Tmp
°C
Dew
Point
°C
Rel
Hum
%
Delta-T

°C
Wind Press
QNH
hPa
Press
MSL
hPa
Rain
since
9 am
mm
Dir
 
Spd
km/h
Gust
km/h
Spd
kts
Gust
kts
28/11:54pm 15.7 6.0 10.5 71 2.8 W 52 72 28 39 997.4 997.3 4.4
28/11:30pm 15.9 6.1 11.5 75 2.4 W 54 65 29 35 997.5 997.4 4.4
28/11:24pm 16.0 6.7 11.8 76 2.3 W 52 61 28 33 997.6 997.5 4.4
28/11:00pm 16.4 11.4 13.3 82 1.8 W 32 44 17 24 998.1 998.0 4.4
28/10:30pm 17.2 14.3 13.9 81 1.9 WNW 22 33 12 18 997.6 997.5 4.4
28/10:00pm 16.6 14.7 14.1 85 1.4 WNW 17 20 9 11 997.3 997.2 4.4
28/09:30pm 18.1 16.6 14.2 78 2.2 NW 15 19 8 10 996.9 996.8 3.8
28/09:00pm 18.3 16.0 14.2 77 2.4 NNW 19 22 10 12 996.7 996.6 3.8
28/08:30pm 18.0 15.5 14.1 78 2.2 NNW 20 24 11 13 996.4 996.3 3.8
28/08:00pm 18.2 15.3 14.1 77 2.4 NNW 22 33 12 18 996.0 995.9 3.8
28/07:30pm 17.2 14.0 14.3 83 1.7 NNW 24 32 13 17 995.9 995.8 3.8
28/07:00pm 17.1 15.6 14.2 83 1.7 N 15 26 8 14 995.8 995.7 3.8
28/06:30pm 16.8 16.0 13.9 83 1.6 N 11 20 6 11 996.3 996.2 3.8
28/06:00pm 16.4 15.2 14.1 86 1.3 NNE 13 20 7 11 996.3 996.2 3.8
28/05:30pm 15.9 14.2 13.7 87 1.2 NNE 15 19 8 10 996.6 996.5 3.8
28/05:00pm 15.5 14.1 13.3 87 1.2 N 13 17 7 9 997.2 997.1 3.8
28/04:30pm 15.3 13.0 13.1 87 1.2 N 17 24 9 13 997.4 997.3 3.8
28/04:00pm 15.2 12.9 13.1 87 1.2 N 17 26 9 14 997.3 997.2 3.6
28/03:30pm 14.7 11.8 12.4 86 1.3 NNE 19 26 10 14 997.9 997.8 3.4
28/03:00pm 15.0 12.9 12.5 85 1.4 NE 15 24 8 13 998.5 998.4 3.4
28/02:30pm 14.9 13.2 12.6 86 1.3 NNE 13 20 7 11 999.2 999.1 3.4
28/02:00pm 14.7 13.4 12.6 87 1.2 N 11 15 6 8 1000.1 1000.0 3.4
28/01:30pm 14.9 13.7 12.8 87 1.2 NNE 11 19 6 10 1000.6 1000.5 3.4
28/01:00pm 14.5 13.6 12.5 88 1.1 NNE 9 13 5 7 1001.0 1000.9 3.4
28/12:30pm 13.6 11.6 11.5 87 1.1 N 13 17 7 9 1001.9 1001.8 3.2
28/12:00pm 14.3 12.1 10.7 79 1.9 N 13 20 7 11 1001.9 1001.8 0.2
28/11:30am 15.6 13.3 10.4 71 2.7 NNE 13 20 7 11 1002.7 1002.6 0.0
28/11:00am 15.1 11.4 10.1 72 2.6 NNE 20 35 11 19 1002.4 1002.3 0.0
28/10:30am 15.2 10.7 10.0 71 2.7 NNE 24 39 13 21 1002.2 1002.1 0.0
28/10:00am 15.2 10.6 9.8 70 2.8 NNE 24 39 13 21 1002.4 1002.3 0.0
28/09:30am 15.2 9.8 9.6 69 2.9 NNE 28 43 15 23 1002.9 1002.8 0.0
28/09:00am 16.0 11.4 9.7 66 3.3 NNE 24 41 13 22 1003.7 1003.6 -
28/08:30am 14.9 11.9 9.1 68 3.0 NE 15 26 8 14 1004.4 1004.3 -
28/08:00am 13.4 11.4 8.5 72 2.5 NE 9 13 5 7 1004.6 1004.5 -
28/07:30am 12.0 10.0 7.3 73 2.3 NNE 7 11 4 6 1005.3 1005.2 -
28/07:00am 12.1 10.1 7.0 71 2.5 NNE 7 11 4 6 1005.5 1005.4 -
28/06:30am 12.0 9.1 6.7 70 2.5 NE 11 13 6 7 1005.7 1005.6 -
28/06:00am 12.1 9.6 6.4 68 2.7 NNE 9 13 5 7 1006.2 1006.1 -
28/05:30am 11.9 9.0 6.6 70 2.5 NE 11 15 6 8 1006.7 1006.6 -
28/05:00am 11.7 9.8 6.8 72 2.3 NE 6 7 3 4 1007.3 1007.2 -
28/04:30am 11.7 9.3 6.8 72 2.3 N 9 11 5 6 1007.8 1007.7 -
28/04:00am 11.8 9.4 7.1 73 2.3 N 9 11 5 6 1008.0 1007.9 -
28/03:30am 11.3 8.4 6.6 73 2.2 NNE 11 13 6 7 1008.2 1008.1 -
28/03:00am 10.9 8.6 5.9 71 2.3 NNE 7 11 4 6 1008.7 1008.6 0.0
28/02:30am 11.6 10.7 6.1 69 2.6 CALM 0 6 0 3 1009.0 1008.9 -
28/02:00am 11.9 11.0 6.2 68 2.7 CALM 0 0 0 0 1009.3 1009.2 -
28/01:30am 12.3 11.0 6.1 66 2.9 WSW 2 9 1 5 1009.8 1009.7 -
28/01:00am 12.3 9.8 6.4 67 2.8 WSW 9 11 5 6 1010.2 1010.1 -
28/12:30am 12.3 9.8 6.4 67 2.8 SW 9 13 5 7 1010.3 1010.2 -
28/12:00am 12.6 9.6 6.2 65 3.0 WSW 11 17 6 9 1010.8 1010.7 -
 
Date/Time
EDT
Tmp

°C
App
Tmp
°C
Dew
Point
°C
Rel
Hum
%
Delta-T

°C
Wind Press
QNH
hPa
Press
MSL
hPa
Rain
since
9 am
mm
Dir
 
Spd
km/h
Gust
km/h
Spd
kts
Gust
kts
27/11:30pm 12.7 9.3 6.1 64 3.1 WSW 13 17 7 9 1011.1 1011.0 -
27/11:00pm 12.7 9.1 4.9 59 3.6 SW 13 17 7 9 1011.1 1011.0 -
27/10:30pm 12.7 9.1 4.9 59 3.6 SW 13 19 7 10 1011.0 1010.9 -
27/10:00pm 12.8 8.9 5.2 60 3.5 SW 15 19 8 10 1011.1 1011.0 -
27/09:30pm 12.8 9.4 5.7 62 3.3 SW 13 22 7 12 1010.9 1010.8 -
27/09:00pm 12.7 8.2 6.1 64 3.1 SW 19 26 10 14 1010.7 1010.6 -
27/08:30pm 13.0 8.3 5.9 62 3.4 SW 20 28 11 15 1010.6 1010.5 -
27/08:00pm 13.1 8.0 6.0 62 3.4 SW 22 30 12 16 1010.5 1010.4 -
27/07:30pm 13.3 8.6 5.9 61 3.5 SW 20 30 11 16 1010.4 1010.3 -
27/07:00pm 13.5 8.8 6.1 61 3.5 SW 20 30 11 16 1010.4 1010.3 -
27/06:30pm 13.8 8.8 6.4 61 3.6 SW 22 32 12 17 1010.4 1010.3 -
27/06:00pm 14.3 9.0 6.9 61 3.6 SW 24 33 13 18 1010.4 1010.3 -
27/05:30pm 13.9 7.9 7.0 63 3.4 SW 28 37 15 20 1010.4 1010.3 -
27/05:00pm 14.1 8.2 7.6 65 3.2 SW 28 39 15 21 1010.4 1010.3 -
27/04:30pm 13.9 7.7 7.9 67 3.0 SW 30 41 16 22 1009.9 1009.8 -
27/04:00pm 14.1 8.7 8.1 67 3.0 SW 26 33 14 18 1009.8 1009.7 -
27/03:00pm 16.5 - 9.4 63 3.7 - - - - - - 1009.8 -
27/02:30pm 16.4 12.4 9.1 62 3.8 SW 20 30 11 16 1010.0 1009.9 0.2
27/02:00pm 14.9 11.6 9.5 70 2.8 SW 17 26 9 14 1009.8 1009.7 0.2
27/01:30pm 15.7 12.4 9.4 66 3.3 SSW 17 24 9 13 1009.9 1009.8 0.2
27/01:00pm 18.1 15.6 11.0 63 3.9 SE 15 20 8 11 1009.6 1009.5 0.2
27/12:30pm 16.5 14.8 9.7 64 3.6 SE 9 15 5 8 1010.0 1009.9 0.2
27/12:00pm 17.1 15.0 9.8 62 3.9 S 11 15 6 8 1009.9 1009.8 0.2
27/11:30am 17.0 15.2 9.4 61 4.0 SW 9 11 5 6 1010.0 1009.9 0.2
27/11:00am 15.0 13.3 8.3 64 3.4 WSW 7 11 4 6 1010.4 1010.3 0.0
27/10:30am 16.5 14.8 9.7 64 3.6 NNE 9 19 5 10 1010.7 1010.6 0.0
27/10:00am 15.2 13.8 8.7 65 3.3 NNE 6 9 3 5 1010.7 1010.6 0.0
27/09:30am 13.7 12.2 9.0 73 2.4 W 7 9 4 5 1011.0 1010.9 0.0
27/09:00am 13.1 12.1 8.8 75 2.2 NNW 4 9 2 5 1011.1 1011.0 0.0
27/08:30am 12.8 11.4 8.7 76 2.1 NE 6 7 3 4 1010.7 1010.6 0.0
27/08:00am 12.1 10.4 8.2 77 1.9 NE 7 11 4 6 1010.6 1010.5 0.0
27/07:30am 11.3 9.5 8.0 80 1.6 NNE 7 9 4 5 1010.7 1010.6 0.0
27/07:00am 11.4 10.8 7.5 77 1.9 CALM 0 0 0 0 1010.9 1010.8 0.0
27/06:30am 11.9 11.3 7.2 73 2.3 CALM 0 6 0 3 1011.2 1011.1 0.0
27/06:00am 12.5 9.4 7.2 70 2.6 W 13 17 7 9 1011.1 1011.0 0.0
27/05:30am 12.2 8.3 7.1 71 2.5 W 17 20 9 11 1010.7 1010.6 0.0
27/05:00am 12.1 9.4 7.4 73 2.3 W 11 15 6 8 1010.4 1010.3 0.0
27/04:30am 11.8 9.1 7.5 75 2.1 WNW 11 17 6 9 1010.3 1010.2 0.0
27/04:00am 11.5 9.1 7.2 75 2.1 NW 9 11 5 6 1010.6 1010.5 0.0
27/03:30am 11.2 8.9 7.3 77 1.9 NW 9 11 5 6 1010.8 1010.7 0.0
27/03:00am 10.1 7.2 6.6 79 1.6 N 11 13 6 7 1010.8 1010.7 0.0
27/02:30am 10.0 7.1 6.5 79 1.6 N 11 11 6 6 1010.9 1010.8 0.0
27/02:00am 10.6 8.1 6.4 75 2.0 NW 9 11 5 6 1011.2 1011.1 0.0
27/01:30am 11.8 10.3 6.7 71 2.4 WSW 4 7 2 4 1011.3 1011.2 0.0
27/01:00am 12.2 9.8 6.9 70 2.5 WNW 9 11 5 6 1011.9 1011.8 0.0
27/12:30am 12.7 8.9 7.4 70 2.6 W 17 20 9 11 1012.0 1011.9 0.0
27/12:00am 12.6 9.6 7.5 71 2.5 W 13 17 7 9 1012.0 1011.9 0.0
 
Date/Time
EDT
Tmp

°C
App
Tmp
°C
Dew
Point
°C
Rel
Hum
%
Delta-T

°C
Wind Press
QNH
hPa
Press
MSL
hPa
Rain
since
9 am
mm
Dir
 
Spd
km/h
Gust
km/h
Spd
kts
Gust
kts
26/11:30pm 12.6 9.1 7.3 70 2.6 W 15 19 8 10 1012.0 1011.9 0.0
26/11:00pm 12.4 9.2 6.9 69 2.6 WSW 13 19 7 10 1012.3 1012.2 0.0
26/10:30pm 12.7 8.9 5.6 62 3.3 SW 15 20 8 11 1012.3 1012.2 0.0
26/10:00pm 12.7 9.6 5.6 62 3.3 SW 11 20 6 11 1012.3 1012.2 0.0
26/09:30pm 13.0 9.1 5.2 59 3.6 SW 15 22 8 12 1012.1 1012.0 0.0
26/09:00pm 12.9 9.3 4.8 58 3.7 SW 13 20 7 11 1011.7 1011.6 0.0
26/08:30pm 13.0 9.0 4.9 58 3.7 SW 15 22 8 12 1011.2 1011.1 0.0
26/08:00pm 13.1 9.1 4.8 57 3.8 SSW 15 20 8 11 1010.7 1010.6 0.0
26/07:30pm 13.6 9.2 4.7 55 4.1 SW 17 26 9 14 1010.3 1010.2 0.0
26/07:00pm 13.9 9.2 5.0 55 4.2 SW 19 28 10 15 1010.2 1010.1 0.0
26/06:30pm 14.0 9.2 4.9 54 4.2 SW 19 32 10 17 1009.7 1009.6 0.0
26/06:00pm 14.3 8.9 4.6 52 4.5 SW 22 33 12 18 1009.8 1009.7 0.0
26/05:30pm 14.6 8.1 4.6 51 4.7 SW 28 39 15 21 1009.3 1009.2 0.0
26/05:00pm 14.9 7.7 5.1 52 4.6 SW 32 41 17 22 1009.3 1009.2 0.0
26/04:30pm 14.3 8.2 4.9 53 4.4 SW 26 39 14 21 1009.3 1009.2 0.0
26/04:00pm 14.8 8.8 5.1 52 4.6 SW 26 37 14 20 1009.2 1009.1 0.0
26/03:30pm 15.3 9.2 6.8 57 4.2 SW 28 39 15 21 1009.2 1009.1 0.0
26/03:00pm 15.7 9.4 7.5 58 4.1 SW 30 44 16 24 1009.1 1009.0 0.0
26/02:30pm 14.9 8.3 8.6 66 3.2 SW 33 44 18 24 1008.9 1008.8 0.0
26/02:00pm 14.4 8.4 10.2 76 2.2 SW 32 44 17 24 1008.6 1008.5 0.0
26/01:30pm 12.5 5.6 10.4 87 1.1 SW 37 48 20 26 1008.2 1008.1 0.0
26/01:00pm 13.4 8.5 11.3 87 1.1 WSW 28 41 15 22 1007.8 1007.7 0.0
26/12:30pm 13.7 8.1 11.6 87 1.1 WSW 32 43 17 23 1007.5 1007.4 0.0
26/12:00pm 13.5 7.4 11.7 89 1.0 SW 35 50 19 27 1007.3 1007.2 0.0
26/11:34am 16.1 9.5 11.5 74 2.5 W 37 50 20 27 1006.8 1006.7 0.0
26/11:30am 17.7 11.5 11.5 67 3.4 W 35 46 19 25 1006.5 1006.4 0.0
26/11:00am 18.6 11.6 11.4 63 4.0 WNW 39 46 21 25 1006.2 1006.1 0.0
26/10:30am 17.9 11.2 11.0 64 3.7 WNW 37 46 20 25 1006.0 1005.9 0.0
26/10:18am 17.8 11.5 11.1 65 3.6 WNW 35 50 19 27 1006.0 1005.9 0.0

Latest Capital City Observations: Canberra | Sydney | Melbourne | Brisbane | Adelaide | Perth | Hobart | Darwin

Other Formats:

Comma delimited format used in spreadsheet applications
http://www.bom.gov.au/fwo/IDT60901/IDT60901.95967.axf

JavaScript Object Notation format (JSON) in row-major order
http://www.bom.gov.au/fwo/IDT60901/IDT60901.95967.json